createdAt,value
2023-01-19T00:00:40.347Z,30.30
2023-01-19T00:03:16.071Z,31.60
2023-01-19T00:05:43.924Z,31.00
2023-01-19T00:08:16.865Z,32.17
2023-01-19T00:10:46.047Z,31.80
2023-01-19T00:13:13.175Z,33.10
2023-01-19T00:15:40.886Z,34.17
2023-01-19T00:18:09.079Z,34.30
2023-01-19T00:20:36.996Z,35.00
2023-01-19T00:23:04.687Z,35.43
2023-01-19T00:25:31.449Z,36.37
2023-01-19T00:28:00.437Z,35.60
2023-01-19T00:30:27.787Z,35.77
2023-01-19T00:32:54.238Z,38.03
2023-01-19T00:35:20.692Z,37.80
2023-01-19T00:37:47.217Z,35.13
2023-01-19T00:40:14.266Z,35.97
2023-01-19T00:42:41.292Z,35.40
2023-01-19T00:45:09.877Z,35.20
2023-01-19T00:47:36.366Z,34.23
2023-01-19T00:50:03.231Z,35.73
2023-01-19T00:52:29.767Z,36.47
2023-01-19T00:54:56.326Z,36.27
2023-01-19T00:57:23.455Z,36.37
2023-01-19T00:59:49.996Z,36.50
2023-01-19T01:02:16.651Z,37.87
2023-01-19T01:04:43.258Z,36.87
2023-01-19T01:07:09.793Z,37.77
2023-01-19T01:09:36.380Z,37.00
2023-01-19T01:12:03.219Z,38.17
2023-01-19T01:14:32.279Z,37.23
2023-01-19T01:16:58.827Z,41.47
2023-01-19T01:19:25.403Z,37.93
2023-01-19T01:21:51.888Z,38.10
2023-01-19T01:24:18.808Z,37.70
2023-01-19T01:26:45.275Z,39.17
2023-01-19T01:29:12.223Z,41.30
2023-01-19T01:31:38.748Z,40.27
2023-01-19T01:34:05.513Z,41.80
2023-01-19T01:36:33.463Z,40.37
2023-01-19T01:39:00.267Z,40.33
2023-01-19T01:41:27.534Z,41.07
2023-01-19T01:43:58.530Z,40.87
2023-01-19T01:46:26.889Z,41.20
2023-01-19T01:49:15.792Z,41.80
2023-01-19T01:51:48.037Z,38.37
2023-01-19T01:54:27.491Z,38.33
2023-01-19T01:56:55.938Z,39.17
2023-01-19T01:59:26.113Z,40.23
2023-01-19T02:02:14.884Z,37.93
2023-01-19T02:04:51.157Z,39.40
2023-01-19T02:07:45.464Z,38.83
2023-01-19T02:10:30.630Z,39.50
2023-01-19T02:13:16.216Z,41.10
2023-01-19T02:15:42.702Z,39.00
2023-01-19T02:18:09.285Z,38.07
2023-01-19T02:20:35.897Z,39.67
2023-01-19T02:23:04.086Z,40.70
2023-01-19T02:25:30.627Z,37.90
2023-01-19T02:27:57.111Z,38.03
2023-01-19T02:30:24.110Z,38.90
2023-01-19T02:32:50.623Z,39.67
2023-01-19T02:35:17.243Z,41.23
2023-01-19T02:37:44.334Z,39.57
2023-01-19T02:40:15.537Z,39.57
2023-01-19T02:42:52.238Z,38.57
2023-01-19T02:45:21.252Z,39.47
2023-01-19T02:47:50.761Z,41.00
2023-01-19T02:50:34.210Z,39.57
2023-01-19T02:53:11.598Z,38.93
2023-01-19T02:55:39.512Z,39.50
2023-01-19T02:58:08.342Z,38.93
2023-01-19T03:00:52.647Z,37.00
2023-01-19T03:03:34.800Z,35.87
2023-01-19T03:06:08.907Z,36.77
2023-01-19T03:08:45.318Z,37.60
2023-01-19T03:11:12.945Z,37.10
2023-01-19T03:13:47.917Z,37.23
2023-01-19T03:16:26.993Z,38.37
2023-01-19T03:19:01.935Z,38.40
2023-01-19T03:21:28.880Z,37.50
2023-01-19T03:23:57.557Z,38.00
2023-01-19T03:26:29.850Z,36.63
2023-01-19T03:28:58.060Z,36.93
2023-01-19T03:31:26.491Z,39.20
2023-01-19T03:33:59.666Z,40.00
2023-01-19T03:36:33.036Z,39.93
2023-01-19T03:39:01.341Z,40.40
2023-01-19T03:41:29.087Z,36.83
2023-01-19T03:43:56.275Z,38.73
2023-01-19T03:46:23.779Z,38.30
2023-01-19T03:48:50.470Z,38.40
2023-01-19T03:51:17.206Z,37.07
2023-01-19T03:53:43.720Z,37.57
2023-01-19T03:56:17.905Z,38.77
2023-01-19T03:58:44.690Z,38.70
2023-01-19T04:01:11.435Z,38.77
2023-01-19T04:03:38.057Z,39.30
2023-01-19T04:06:04.739Z,37.93
2023-01-19T04:08:31.675Z,39.90
2023-01-19T04:10:58.311Z,37.07
2023-01-19T04:13:27.047Z,38.60
2023-01-19T04:15:53.795Z,38.13
2023-01-19T04:18:20.247Z,37.87
2023-01-19T04:20:46.761Z,38.33
2023-01-19T04:23:13.198Z,38.20
2023-01-19T04:25:40.804Z,37.33
2023-01-19T04:28:07.346Z,38.70
2023-01-19T04:30:33.852Z,39.40
2023-01-19T04:33:00.647Z,39.47
2023-01-19T04:35:27.356Z,36.63
2023-01-19T04:37:53.806Z,37.80
2023-01-19T04:40:20.445Z,36.63
2023-01-19T04:42:47.150Z,38.10
2023-01-19T04:45:14.186Z,37.93
2023-01-19T04:47:42.775Z,37.90
2023-01-19T04:50:10.617Z,38.20
2023-01-19T04:52:37.264Z,37.27
2023-01-19T04:55:05.045Z,35.20
2023-01-19T04:57:31.791Z,36.17
2023-01-19T04:59:58.749Z,35.57
2023-01-19T05:02:25.464Z,35.93
2023-01-19T05:04:52.044Z,38.07
2023-01-19T05:07:18.617Z,37.50
2023-01-19T05:09:45.224Z,37.17
2023-01-19T05:12:11.916Z,36.57
2023-01-19T05:14:38.769Z,36.30
2023-01-19T05:17:05.353Z,38.27
2023-01-19T05:19:31.980Z,35.67
2023-01-19T05:21:58.450Z,36.30
2023-01-19T05:24:24.916Z,36.00
2023-01-19T05:26:51.401Z,34.97
2023-01-19T05:29:17.836Z,32.30
2023-01-19T05:31:44.287Z,31.73
2023-01-19T05:34:11.564Z,33.07
2023-01-19T05:36:38.094Z,32.90
2023-01-19T05:39:04.702Z,32.80
2023-01-19T05:41:31.382Z,30.67
2023-01-19T05:43:57.987Z,31.43
2023-01-19T05:46:24.480Z,31.93
2023-01-19T05:48:51.388Z,30.70
2023-01-19T05:51:17.897Z,31.43
2023-01-19T05:53:44.794Z,29.77
2023-01-19T05:56:11.702Z,30.13
2023-01-19T05:58:41.422Z,28.33
2023-01-19T06:01:10.027Z,28.33
2023-01-19T06:03:37.049Z,27.13
2023-01-19T06:06:04.070Z,27.73
2023-01-19T06:08:30.590Z,28.27
2023-01-19T06:10:57.246Z,26.90
2023-01-19T06:13:23.745Z,24.83
2023-01-19T06:15:56.886Z,24.83
2023-01-19T06:18:23.606Z,24.77
2023-01-19T06:20:50.097Z,24.20
2023-01-19T06:23:16.587Z,24.97
2023-01-19T06:25:43.121Z,27.10
2023-01-19T06:28:09.669Z,24.50
2023-01-19T06:30:36.142Z,23.97
2023-01-19T06:33:02.828Z,25.70
2023-01-19T06:35:29.565Z,24.63
2023-01-19T06:37:56.041Z,24.13
2023-01-19T06:40:22.554Z,22.40
2023-01-19T06:42:49.657Z,23.00
2023-01-19T06:45:16.373Z,23.37
2023-01-19T06:47:42.853Z,23.07
2023-01-19T06:50:09.942Z,23.17
2023-01-19T06:52:42.139Z,23.57
2023-01-19T06:55:10.896Z,22.80
2023-01-19T06:57:41.257Z,22.90
2023-01-19T07:00:09.086Z,24.03
2023-01-19T07:02:36.946Z,23.67
2023-01-19T07:05:04.264Z,23.90
2023-01-19T07:07:31.263Z,23.33
2023-01-19T07:09:57.740Z,24.63
2023-01-19T07:12:24.408Z,24.83
2023-01-19T07:14:51.708Z,24.17
2023-01-19T07:17:18.975Z,25.13
2023-01-19T07:19:46.522Z,24.73
2023-01-19T07:22:13.095Z,24.10
2023-01-19T07:24:40.223Z,25.47
2023-01-19T07:27:06.804Z,23.80
2023-01-19T07:29:33.518Z,23.93
2023-01-19T07:32:00.255Z,22.73
2023-01-19T07:34:26.915Z,21.57
2023-01-19T07:36:53.668Z,23.03
2023-01-19T07:39:20.263Z,23.97
2023-01-19T07:41:48.837Z,23.37
2023-01-19T07:44:15.729Z,21.70
2023-01-19T07:46:43.354Z,21.93
2023-01-19T07:49:10.063Z,21.83
2023-01-19T07:51:36.767Z,19.70
2023-01-19T07:54:03.550Z,21.03
2023-01-19T07:56:33.611Z,21.60
2023-01-19T07:59:00.404Z,21.07
2023-01-19T08:01:27.205Z,20.60
2023-01-19T08:03:53.829Z,20.73
2023-01-19T08:06:22.340Z,22.40
2023-01-19T08:08:48.959Z,20.77
2023-01-19T08:11:15.687Z,17.63
2023-01-19T08:13:43.318Z,19.87
2023-01-19T08:16:10.055Z,19.33
2023-01-19T08:18:36.644Z,18.23
2023-01-19T08:21:03.395Z,22.37
2023-01-19T08:23:29.871Z,18.70
2023-01-19T08:25:56.395Z,18.83
2023-01-19T08:28:23.112Z,20.37
2023-01-19T08:30:54.457Z,19.20
2023-01-19T08:33:25.244Z,18.37
2023-01-19T08:35:53.032Z,17.70
2023-01-19T08:38:20.161Z,16.70
2023-01-19T08:40:46.702Z,17.53
2023-01-19T08:43:15.088Z,18.73
2023-01-19T08:45:48.116Z,17.87
2023-01-19T08:48:16.339Z,17.47
2023-01-19T08:50:45.140Z,17.17
2023-01-19T08:53:11.696Z,17.50
2023-01-19T08:55:39.621Z,17.80
2023-01-19T08:58:07.843Z,18.00
2023-01-19T09:00:35.559Z,18.77
2023-01-19T09:03:04.128Z,20.23
2023-01-19T09:05:35.565Z,18.87
2023-01-19T09:08:03.566Z,21.30
2023-01-19T09:10:35.369Z,21.87
2023-01-19T09:13:11.211Z,18.97
2023-01-19T09:15:38.973Z,17.90
2023-01-19T09:18:10.105Z,19.20
2023-01-19T09:20:38.757Z,18.80
2023-01-19T09:23:06.090Z,18.53
2023-01-19T09:25:32.941Z,19.43
2023-01-19T09:28:00.608Z,18.83
2023-01-19T09:30:27.806Z,18.93
2023-01-19T09:32:54.421Z,18.03
2023-01-19T09:35:21.683Z,18.90
2023-01-19T09:37:48.328Z,18.93
2023-01-19T11:14:07.689Z,25.83
2023-01-19T11:16:35.197Z,26.60
2023-01-19T11:19:03.215Z,25.70
2023-01-19T11:21:31.769Z,26.83
2023-01-19T11:24:05.187Z,25.80
2023-01-19T11:26:41.123Z,27.10
2023-01-19T11:29:18.312Z,26.73
2023-01-19T11:31:45.102Z,26.90
2023-01-19T11:34:33.019Z,27.17
2023-01-19T11:37:01.133Z,25.80
2023-01-19T11:39:30.287Z,27.50
2023-01-19T11:41:59.561Z,26.30
2023-01-19T11:45:08.135Z,26.00
2023-01-19T11:47:41.947Z,26.03
2023-01-19T11:50:27.710Z,33.00
2023-01-19T11:53:17.634Z,26.90
2023-01-19T11:55:51.281Z,26.20
2023-01-19T11:58:18.775Z,25.37
2023-01-19T12:00:50.487Z,25.63
2023-01-19T12:03:22.957Z,25.13
2023-01-19T12:05:52.550Z,24.60
2023-01-19T12:08:27.829Z,23.67
2023-01-19T12:10:56.218Z,24.03
2023-01-19T12:13:24.992Z,24.07
2023-01-19T12:15:57.868Z,21.57
2023-01-19T12:18:30.062Z,21.60
2023-01-19T12:20:58.694Z,22.90
2023-01-19T12:23:34.520Z,22.73
2023-01-19T12:26:13.157Z,21.57
2023-01-19T12:28:42.681Z,22.40
2023-01-19T12:31:09.692Z,20.77
2023-01-19T12:33:38.447Z,22.53
2023-01-19T12:36:17.279Z,20.87
2023-01-19T12:38:47.009Z,20.80
2023-01-19T12:41:19.080Z,23.17
2023-01-19T12:43:46.411Z,20.57
2023-01-19T12:46:39.770Z,21.20
2023-01-19T12:49:19.449Z,19.83
2023-01-19T12:51:46.482Z,20.80
2023-01-19T12:54:25.237Z,20.27
2023-01-19T12:56:58.882Z,20.70
2023-01-19T12:59:26.840Z,19.13
2023-01-19T13:02:18.320Z,20.10
2023-01-19T13:05:23.748Z,21.63
2023-01-19T13:08:02.396Z,21.53
2023-01-19T13:11:00.096Z,20.37
2023-01-19T13:13:37.899Z,20.47
2023-01-19T13:16:20.157Z,19.77
2023-01-19T13:18:52.572Z,21.37
2023-01-19T13:21:44.658Z,19.73
2023-01-19T13:24:15.120Z,20.23
2023-01-19T13:27:03.523Z,20.23
2023-01-19T13:29:33.925Z,20.20
2023-01-19T13:32:02.872Z,19.07
2023-01-19T13:34:33.365Z,19.63
2023-01-19T13:37:00.009Z,19.23
2023-01-19T13:39:36.912Z,20.73
2023-01-19T13:42:28.457Z,20.37
2023-01-19T13:44:58.605Z,21.87
2023-01-19T13:47:40.386Z,22.13
2023-01-19T13:50:07.619Z,23.20
2023-01-19T13:52:34.665Z,24.10
2023-01-19T13:55:04.332Z,24.30
2023-01-19T13:57:31.177Z,25.43
2023-01-19T14:00:08.506Z,25.67
2023-01-19T14:02:35.899Z,26.47
2023-01-19T14:05:31.505Z,24.30
2023-01-19T14:08:13.122Z,24.83
2023-01-19T14:10:54.625Z,24.73
2023-01-19T14:13:32.766Z,24.70
2023-01-19T14:16:16.080Z,25.47
2023-01-19T14:18:43.009Z,24.13
2023-01-19T14:21:11.997Z,25.03
2023-01-19T14:23:44.515Z,25.77
2023-01-19T14:26:39.231Z,25.10
2023-01-19T14:29:19.385Z,24.13
2023-01-19T14:31:47.369Z,24.37
2023-01-19T14:34:39.801Z,26.20
2023-01-19T14:37:28.640Z,25.17
2023-01-19T14:40:10.801Z,23.57
2023-01-19T14:43:00.076Z,22.57
2023-01-19T14:45:36.940Z,22.80
2023-01-19T14:48:13.476Z,23.17
2023-01-19T14:50:48.272Z,22.03
2023-01-19T14:53:25.722Z,22.43
2023-01-19T14:55:57.380Z,22.67
2023-01-19T14:58:26.362Z,24.37
2023-01-19T15:00:55.800Z,24.67
2023-01-19T15:03:42.885Z,24.13
2023-01-19T15:06:13.829Z,25.57
2023-01-19T15:08:41.531Z,25.50
2023-01-19T15:11:32.099Z,24.77
2023-01-19T15:13:59.585Z,24.57
2023-01-19T15:16:27.048Z,27.07
2023-01-19T15:18:53.737Z,27.30
2023-01-19T15:21:26.873Z,24.80
2023-01-19T15:23:54.549Z,25.53
2023-01-19T15:26:23.945Z,26.10
2023-01-19T15:28:50.846Z,25.97
2023-01-19T15:31:20.865Z,25.30
2023-01-19T15:33:47.671Z,26.57
2023-01-19T15:36:37.492Z,25.70
2023-01-19T15:39:04.099Z,26.07
2023-01-19T15:41:31.024Z,25.33
2023-01-19T15:43:58.106Z,27.23
2023-01-19T15:46:25.839Z,26.70
2023-01-19T15:48:53.623Z,24.43
2023-01-19T15:51:22.001Z,26.67
2023-01-19T15:53:49.002Z,26.50
2023-01-19T15:56:21.043Z,26.23
2023-01-19T15:58:48.213Z,24.97
2023-01-19T16:01:21.277Z,23.97
2023-01-19T16:03:47.880Z,23.17
2023-01-19T16:06:16.212Z,26.07
2023-01-19T16:08:43.107Z,24.87
2023-01-19T16:11:11.760Z,25.47
2023-01-19T16:13:38.410Z,23.50
2023-01-19T16:16:08.023Z,23.53
2023-01-19T16:18:34.859Z,24.47
2023-01-19T16:21:01.488Z,24.17
2023-01-19T16:23:28.170Z,24.17
2023-01-19T16:25:57.019Z,23.53
2023-01-19T16:28:23.889Z,26.10
2023-01-19T16:30:51.624Z,25.80
2023-01-19T16:33:18.285Z,27.40
2023-01-19T16:35:44.946Z,24.43
2023-01-19T16:38:11.687Z,23.33
2023-01-19T16:40:38.372Z,23.70
2023-01-19T16:43:05.043Z,22.97
2023-01-19T16:45:31.676Z,24.80
2023-01-19T16:47:58.151Z,21.73
2023-01-19T16:50:24.717Z,22.10
2023-01-19T16:52:56.713Z,21.47
2023-01-19T16:55:23.296Z,23.03
2023-01-19T16:57:49.978Z,22.90
2023-01-19T17:00:16.816Z,23.23
2023-01-19T17:02:43.410Z,22.77
2023-01-19T17:05:10.473Z,23.47
2023-01-19T17:07:37.247Z,22.87
2023-01-19T17:10:04.276Z,25.00
2023-01-19T17:12:32.249Z,24.43
2023-01-19T17:14:59.148Z,24.33
2023-01-19T17:17:25.656Z,25.17
2023-01-19T17:19:52.592Z,23.70
2023-01-19T17:22:19.236Z,24.60
2023-01-19T17:24:46.619Z,24.17
2023-01-19T17:27:13.331Z,23.87
2023-01-19T17:29:42.348Z,21.13
2023-01-19T17:32:08.961Z,19.80
2023-01-19T17:34:35.511Z,21.00
2023-01-19T17:37:03.265Z,21.63
2023-01-19T17:39:30.045Z,20.03
2023-01-19T17:41:56.950Z,21.33
2023-01-19T17:44:23.921Z,18.40
2023-01-19T17:46:50.540Z,18.30
2023-01-19T17:49:17.188Z,18.20
2023-01-19T17:51:43.691Z,18.73
2023-01-19T17:54:11.257Z,18.53
2023-01-19T17:56:38.788Z,18.40
2023-01-19T17:59:07.767Z,20.00
2023-01-19T18:01:38.315Z,22.80
2023-01-19T18:04:05.356Z,23.73
2023-01-19T18:06:32.300Z,24.30
2023-01-19T18:08:59.442Z,23.53
2023-01-19T18:11:26.887Z,24.23
2023-01-19T18:13:53.656Z,24.97
2023-01-19T18:16:24.936Z,25.93
2023-01-19T18:18:53.706Z,25.23
2023-01-19T18:21:21.782Z,25.57
2023-01-19T18:23:49.744Z,25.27
2023-01-19T18:26:19.865Z,26.47
2023-01-19T18:28:47.209Z,24.97
2023-01-19T18:31:16.470Z,26.07
2023-01-19T18:33:44.054Z,25.83
2023-01-19T18:36:10.970Z,26.70
2023-01-19T18:38:38.615Z,27.20
2023-01-19T18:41:13.212Z,26.40
2023-01-19T18:43:40.003Z,25.43
2023-01-19T18:46:06.840Z,25.83
2023-01-19T18:48:34.131Z,23.77
2023-01-19T18:51:08.516Z,25.17
2023-01-19T18:53:35.335Z,24.83
2023-01-19T18:56:03.290Z,26.93
2023-01-19T18:58:32.085Z,27.57
2023-01-19T19:01:00.204Z,29.63
2023-01-19T19:03:26.972Z,28.13
2023-01-19T19:05:53.657Z,30.73
2023-01-19T19:08:20.536Z,31.80
2023-01-19T19:10:47.083Z,31.13
2023-01-19T19:13:15.393Z,31.20
2023-01-19T19:15:44.284Z,32.03
2023-01-19T19:18:13.747Z,30.67
2023-01-19T19:20:43.419Z,31.03
2023-01-19T19:23:13.237Z,31.53
2023-01-19T19:25:39.870Z,31.33
2023-01-19T19:28:06.802Z,30.63
2023-01-19T19:30:35.791Z,32.63
2023-01-19T19:33:02.390Z,31.17
2023-01-19T19:35:29.132Z,32.17
2023-01-19T19:37:57.902Z,33.63
2023-01-19T19:40:28.134Z,31.67
2023-01-19T19:42:56.426Z,33.27
2023-01-19T19:45:24.950Z,33.50
2023-01-19T19:47:51.673Z,34.13
2023-01-19T19:50:18.470Z,31.87
2023-01-19T19:52:45.145Z,35.07
2023-01-19T19:55:12.608Z,31.80
2023-01-19T19:57:41.408Z,33.23
2023-01-19T20:00:08.775Z,34.63
2023-01-19T20:02:35.354Z,32.93
2023-01-19T20:05:02.704Z,31.90
2023-01-19T20:07:29.366Z,32.93
2023-01-19T20:09:55.901Z,32.67
2023-01-19T20:12:22.625Z,32.17
2023-01-19T20:14:49.713Z,32.90
2023-01-19T20:17:16.376Z,31.93
2023-01-19T20:19:43.808Z,30.73
2023-01-19T20:22:10.563Z,31.57
2023-01-19T20:24:37.223Z,31.40
2023-01-19T20:27:06.694Z,32.33
2023-01-19T20:29:33.502Z,31.63
2023-01-19T20:32:00.192Z,30.77
2023-01-19T20:34:31.449Z,31.00
2023-01-19T20:36:59.644Z,28.50
2023-01-19T20:39:26.153Z,28.30
2023-01-19T20:41:52.788Z,29.83
2023-01-19T20:44:24.324Z,29.23
2023-01-19T20:46:51.109Z,27.30
2023-01-19T20:49:18.238Z,29.93
2023-01-19T20:51:47.268Z,28.97
2023-01-19T20:54:15.843Z,28.17
2023-01-19T20:56:43.326Z,28.53
2023-01-19T20:59:11.881Z,27.53
2023-01-19T21:01:39.174Z,29.17
2023-01-19T21:04:06.654Z,27.47
2023-01-19T21:06:33.378Z,28.20
2023-01-19T21:08:59.916Z,29.13
2023-01-19T21:11:27.759Z,27.57
2023-01-19T21:13:56.544Z,27.90
2023-01-19T21:16:24.845Z,27.60
2023-01-19T21:18:51.546Z,28.93
2023-01-19T21:21:29.731Z,29.73
2023-01-19T21:23:58.282Z,27.23
2023-01-19T21:26:25.099Z,28.77
2023-01-19T21:28:51.685Z,26.77
2023-01-19T21:31:18.457Z,29.90
2023-01-19T21:33:45.216Z,27.27
2023-01-19T21:36:11.810Z,29.37
2023-01-19T21:38:39.540Z,28.90
2023-01-19T21:41:08.437Z,29.40
2023-01-19T21:43:36.167Z,30.17
2023-01-19T21:46:17.428Z,31.00
2023-01-19T21:48:44.113Z,30.20
2023-01-19T21:51:10.566Z,30.43
2023-01-19T21:53:37.537Z,31.00
2023-01-19T21:56:08.659Z,28.93
2023-01-19T21:58:35.722Z,29.57
2023-01-19T22:01:11.127Z,30.67
2023-01-19T22:03:38.145Z,30.40
2023-01-19T22:06:06.233Z,31.00
2023-01-19T22:08:33.076Z,30.07
2023-01-19T22:11:19.438Z,31.90
2023-01-19T22:13:46.523Z,29.70
2023-01-19T22:16:15.672Z,32.60
2023-01-19T22:18:44.249Z,31.73
2023-01-19T22:21:15.835Z,30.40
2023-01-19T22:23:43.273Z,32.97
2023-01-19T22:26:11.298Z,30.97
2023-01-19T22:28:38.130Z,31.83
2023-01-19T22:31:06.750Z,31.80
2023-01-19T22:33:33.395Z,33.00
2023-01-19T22:36:16.232Z,33.13
2023-01-19T22:38:43.691Z,33.10
2023-01-19T22:41:14.483Z,31.83
2023-01-19T22:43:41.378Z,31.80
2023-01-19T22:46:08.800Z,34.20
2023-01-19T22:48:35.586Z,32.23
2023-01-19T22:51:02.618Z,33.10
2023-01-19T22:53:30.834Z,33.77
2023-01-19T22:55:57.502Z,33.70
2023-01-19T22:58:24.157Z,32.77
2023-01-19T23:00:50.801Z,34.33
2023-01-19T23:03:17.426Z,35.13
2023-01-19T23:05:44.125Z,34.03
2023-01-19T23:08:10.628Z,32.83
2023-01-19T23:10:39.990Z,33.70
2023-01-19T23:13:06.628Z,32.53
2023-01-19T23:15:34.426Z,34.27
2023-01-19T23:18:00.986Z,38.20
2023-01-19T23:20:27.638Z,39.30
2023-01-19T23:22:54.195Z,35.70
2023-01-19T23:25:20.779Z,32.47
2023-01-19T23:27:47.413Z,35.23
2023-01-19T23:30:14.207Z,36.50
2023-01-19T23:32:46.943Z,38.50
2023-01-19T23:35:14.775Z,38.50
2023-01-19T23:37:42.085Z,37.77
2023-01-19T23:40:10.719Z,38.47
2023-01-19T23:42:37.361Z,37.10
2023-01-19T23:45:04.340Z,34.67
2023-01-19T23:47:31.040Z,36.73
2023-01-19T23:49:57.584Z,36.80
2023-01-19T23:52:24.222Z,34.87
2023-01-19T23:54:50.961Z,36.03
2023-01-19T23:57:17.676Z,35.70
2023-01-19T23:59:44.506Z,35.17
